Time;durP1;ratioP1;P1;durP2;ratioP2;P2;SDS_P1;SDS_P2;PMS_P1;PMS_P2;Temp;Humidity;BMP_temperature;BMP_pressure;BME280_temperature;BME280_humidity;BME280_pressure;Samples;Min_cycle;Max_cycle;Signal;HPM_P1;HPM_P2
2021/12/26 00:00:40;;;;;;;;;;;-3273.80;67.40;;;;;;5061141;28;20007;-81
2021/12/26 00:03:06;;;;;;;;;;;-3273.80;66.90;;;;;;5057582;28;19920;-81
2021/12/26 00:05:31;;;;;;;;;;;-3273.90;66.50;;;;;;5075668;28;19936;-82
2021/12/26 00:07:57;;;;;;;;;;;-3273.90;67.40;;;;;;5054368;28;20000;-81
2021/12/26 00:10:23;;;;;;;;;;;-3273.80;66.90;;;;;;5070309;28;19966;-80
2021/12/26 00:12:49;;;;;;;;;;;-3273.80;67.10;;;;;;5065491;28;20415;-80
2021/12/26 00:15:15;;;;;;;;;;;-3273.80;67.50;;;;;;5071028;28;20031;-81
2021/12/26 00:17:41;;;;;;;;;;;-3273.90;66.90;;;;;;5074824;28;19919;-81
2021/12/26 00:20:07;;;;;;;;;;;-3273.90;67.20;;;;;;5059383;28;19921;-82
2021/12/26 00:22:33;;;;;;;;;;;-3273.90;67.90;;;;;;5059866;28;19913;-81
2021/12/26 00:24:59;;;;;;;;;;;-3273.90;67.20;;;;;;5077279;28;20099;-82
2021/12/26 00:27:24;;;;;;;;;;;-3273.90;67.60;;;;;;5076145;28;19944;-82
2021/12/26 00:29:50;;;;;;;;;;;-3273.90;67.20;;;;;;5068810;28;19923;-81
2021/12/26 00:32:15;;;;;;;;;;;-3273.90;66.80;;;;;;5052236;28;19987;-81
2021/12/26 00:34:41;;;;;;;;;;;-3273.90;67.70;;;;;;5062797;28;19936;-82
2021/12/26 00:37:07;;;;;;;;;;;-3273.90;67.50;;;;;;5079235;28;20462;-82
2021/12/26 00:39:33;;;;;;;;;;;-3273.90;67.60;;;;;;5081150;28;19920;-82
2021/12/26 00:41:59;;;;;;;;;;;-3274.00;67.80;;;;;;5079798;28;19916;-81
2021/12/26 00:44:25;;;;;;;;;;;-3274.00;67.70;;;;;;5081086;28;19924;-82
2021/12/26 00:46:53;;;;;;;;;;;-3274.00;67.90;;;;;;5082677;28;19935;-82
2021/12/26 00:49:20;;;;;;;;;;;-3274.00;67.70;;;;;;5064939;28;19923;-82
2021/12/26 00:51:45;;;;;;;;;;;-3274.00;66.90;;;;;;5084203;28;19958;-81
2021/12/26 00:54:11;;;;;;;;;;;-3274.00;67.20;;;;;;5068780;28;19913;-81
2021/12/26 00:56:36;;;;;;;;;;;-3274.00;67.30;;;;;;5072861;28;19913;-81
2021/12/26 00:59:02;;;;;;;;;;;-3274.00;67.40;;;;;;5083224;28;19920;-82
2021/12/26 01:01:27;;;;;;;;;;;-3274.00;67.70;;;;;;5080427;28;19999;-83
2021/12/26 01:03:53;;;;;;;;;;;-3274.00;67.10;;;;;;5078132;28;19912;-81
2021/12/26 01:06:18;;;;;;;;;;;-3273.90;67.60;;;;;;5059433;28;20018;-82
2021/12/26 01:08:48;;;;;;;;;;;-3273.90;67.10;;;;;;5078608;28;19935;-82
2021/12/26 01:11:21;;;;;;;;;;;-3273.90;67.30;;;;;;5055160;28;19934;-80
2021/12/26 01:13:49;;;;;;;;;;;-3273.80;67.90;;;;;;5058396;28;19936;-80
2021/12/26 01:16:15;;;;;;;;;;;-3273.80;67.60;;;;;;5077564;28;19920;-81
2021/12/26 01:18:45;;;;;;;;;;;-3273.80;67.80;;;;;;5060653;28;19924;-81
2021/12/26 01:21:20;;;;;;;;;;;-3273.70;68.00;;;;;;5075437;28;20022;-81
2021/12/26 01:23:50;;;;;;;;;;;-3273.70;68.90;;;;;;5059991;28;19912;-81
2021/12/26 01:26:16;;;;;;;;;;;-3273.70;68.60;;;;;;5061469;28;20032;-82
2021/12/26 01:28:42;;;;;;;;;;;-3273.70;68.00;;;;;;5062220;28;19912;-81
2021/12/26 01:31:07;;;;;;;;;;;-3273.70;68.80;;;;;;5063074;28;20029;-82
2021/12/26 01:33:33;;;;;;;;;;;-3273.80;67.60;;;;;;5072929;28;19913;-82
2021/12/26 01:35:59;;;;;;;;;;;-3274.00;68.20;;;;;;5064324;28;19954;-83
2021/12/26 01:38:24;;;;;;;;;;;-3273.90;67.40;;;;;;5074395;28;19916;-81
2021/12/26 01:40:52;;;;;;;;;;;-3273.80;68.30;;;;;;5073172;28;20324;-81
2021/12/26 01:43:19;;;;;;;;;;;-3273.80;67.70;;;;;;5074062;28;19959;-81
2021/12/26 01:45:46;;;;;;;;;;;-3273.70;68.10;;;;;;5079072;28;19913;-83
2021/12/26 01:48:12;;;;;;;;;;;-3273.70;67.90;;;;;;5059028;28;19919;-82
2021/12/26 01:50:38;;;;;;;;;;;-3273.70;68.40;;;;;;5058866;28;20369;-81
2021/12/26 01:53:05;;;;;;;;;;;-3273.70;68.40;;;;;;5082169;28;19909;-82
2021/12/26 01:55:42;;;;;;;;;;;-3273.70;68.40;;;;;;5060611;28;19964;-80
2021/12/26 01:58:09;;;;;;;;;;;-3273.70;68.70;;;;;;5061718;28;19927;-81
2021/12/26 02:00:37;;;;;;;;;;;-3273.80;68.90;;;;;;5053698;28;19970;-82
2021/12/26 02:03:02;;;;;;;;;;;-3273.80;67.70;;;;;;5061292;28;19951;-80
2021/12/26 02:05:28;;;;;;;;;;;-3273.90;68.30;;;;;;5062157;28;19913;-81
2021/12/26 02:07:53;;;;;;;;;;;-3273.90;68.30;;;;;;5062542;28;19913;-80
2021/12/26 02:10:19;;;;;;;;;;;-3273.80;67.60;;;;;;5058906;28;19969;-81
2021/12/26 02:12:44;;;;;;;;;;;-3273.80;69.00;;;;;;5059833;28;19912;-82
2021/12/26 02:15:10;;;;;;;;;;;-3273.70;68.10;;;;;;5053273;28;19913;-82
2021/12/26 02:17:36;;;;;;;;;;;-3273.70;67.70;;;;;;5057620;28;19912;-80
2021/12/26 02:20:21;;;;;;;;;;;-3273.70;67.60;;;;;;5059777;28;19999;-80
2021/12/26 02:22:52;;;;;;;;;;;-3273.70;67.80;;;;;;5078622;28;20010;-82
2021/12/26 02:25:31;;;;;;;;;;;-3273.70;68.20;;;;;;5076609;28;19962;-81
2021/12/26 02:27:56;;;;;;;;;;;-3274.00;68.80;;;;;;5077239;28;19948;-82
2021/12/26 02:30:23;;;;;;;;;;;-3274.00;67.50;;;;;;5059331;28;19915;-81
2021/12/26 02:32:50;;;;;;;;;;;-3274.00;67.30;;;;;;5059329;28;20365;-82
2021/12/26 02:35:17;;;;;;;;;;;-3274.10;67.10;;;;;;5076808;28;19923;-81
2021/12/26 02:37:42;;;;;;;;;;;-3274.10;66.80;;;;;;5059431;28;19912;-82
2021/12/26 02:40:08;;;;;;;;;;;-3274.10;66.70;;;;;;5057475;28;19923;-81
2021/12/26 02:42:33;;;;;;;;;;;-3274.10;66.40;;;;;;5076824;28;19960;-82
2021/12/26 02:44:59;;;;;;;;;;;-3274.30;65.80;;;;;;5075503;28;19919;-82
2021/12/26 02:47:34;;;;;;;;;;;-3274.10;65.50;;;;;;5057376;28;19955;-82
2021/12/26 02:50:00;;;;;;;;;;;-3274.00;66.00;;;;;;5058580;28;19916;-81
2021/12/26 02:52:26;;;;;;;;;;;-3273.90;66.10;;;;;;5076573;28;19913;-82
2021/12/26 02:54:51;;;;;;;;;;;-3273.90;66.40;;;;;;5077331;28;20006;-81
2021/12/26 02:57:16;;;;;;;;;;;-3273.80;66.00;;;;;;5059452;28;19908;-80
2021/12/26 02:59:42;;;;;;;;;;;-3273.80;66.90;;;;;;5063854;28;19956;-81
2021/12/26 03:02:07;;;;;;;;;;;-3273.80;66.50;;;;;;5059166;28;20175;-82
2021/12/26 03:04:35;;;;;;;;;;;-3273.90;66.20;;;;;;5074639;28;19913;-80
2021/12/26 03:07:03;;;;;;;;;;;-3273.90;66.00;;;;;;5060696;28;19985;-82
2021/12/26 03:09:35;;;;;;;;;;;-3273.80;66.40;;;;;;5072591;28;19916;-82
2021/12/26 03:12:00;;;;;;;;;;;-3273.80;65.90;;;;;;5071984;28;20090;-82
2021/12/26 03:14:26;;;;;;;;;;;-3273.80;66.00;;;;;;5052721;28;19954;-81
2021/12/26 03:16:52;;;;;;;;;;;-3273.80;65.60;;;;;;5060236;28;19912;-82
2021/12/26 03:19:18;;;;;;;;;;;-3273.90;65.90;;;;;;5037339;28;19924;-82
2021/12/26 03:21:43;;;;;;;;;;;-3273.90;65.80;;;;;;5066217;28;19919;-81
2021/12/26 03:24:09;;;;;;;;;;;-3274.20;66.00;;;;;;5052809;28;19921;-82
2021/12/26 03:26:34;;;;;;;;;;;-3274.10;65.10;;;;;;5051991;28;19920;-82
2021/12/26 03:29:00;;;;;;;;;;;-3274.00;65.60;;;;;;5068905;28;19924;-81
2021/12/26 03:31:25;;;;;;;;;;;-3274.00;65.50;;;;;;5050556;28;19999;-81
2021/12/26 03:33:51;;;;;;;;;;;-3274.00;66.30;;;;;;5051680;28;20016;-82
2021/12/26 03:36:16;;;;;;;;;;;-3274.20;65.60;;;;;;5052437;28;20012;-81
2021/12/26 03:38:42;;;;;;;;;;;-3274.40;64.90;;;;;;5064740;28;19979;-80
2021/12/26 03:41:07;;;;;;;;;;;-3274.30;64.40;;;;;;5051406;28;19916;-81
2021/12/26 03:43:33;;;;;;;;;;;-3274.20;64.50;;;;;;5073164;28;19960;-80
2021/12/26 03:45:59;;;;;;;;;;;-3274.30;64.60;;;;;;5056680;28;19924;-81
2021/12/26 03:48:25;;;;;;;;;;;-3274.20;64.70;;;;;;5066200;28;19900;-80
2021/12/26 03:50:51;;;;;;;;;;;-3274.10;64.70;;;;;;5086452;28;20011;-81
2021/12/26 03:53:17;;;;;;;;;;;-3274.10;65.80;;;;;;5086786;28;19944;-82
2021/12/26 03:55:43;;;;;;;;;;;-3274.10;65.00;;;;;;5071353;28;19920;-81
2021/12/26 03:58:09;;;;;;;;;;;-3274.30;64.70;;;;;;5058447;28;20494;-81
2021/12/26 04:00:35;;;;;;;;;;;-3274.40;64.60;;;;;;5061417;28;19946;-81
2021/12/26 04:03:00;;;;;;;;;;;-3274.30;65.20;;;;;;5081577;28;19912;-82
2021/12/26 04:05:26;;;;;;;;;;;-3274.50;64.50;;;;;;5074087;28;19917;-82
2021/12/26 04:07:51;;;;;;;;;;;-3274.40;64.00;;;;;;5080409;28;19954;-82
2021/12/26 04:10:17;;;;;;;;;;;-3274.30;64.20;;;;;;5058320;28;19940;-81
2021/12/26 04:12:46;;;;;;;;;;;-3274.40;64.10;;;;;;5081056;28;19913;-82
2021/12/26 04:15:13;;;;;;;;;;;-3274.30;64.10;;;;;;5076251;28;20015;-82
2021/12/26 04:17:39;;;;;;;;;;;-3274.30;64.10;;;;;;5077811;28;19958;-82
2021/12/26 04:20:05;;;;;;;;;;;-3274.40;63.50;;;;;;5072595;28;19936;-82
2021/12/26 04:22:31;;;;;;;;;;;-3274.40;63.80;;;;;;5065881;28;19912;-81
2021/12/26 04:24:57;;;;;;;;;;;-3274.30;63.60;;;;;;5062832;28;19927;-81
2021/12/26 04:27:24;;;;;;;;;;;-3274.20;64.10;;;;;;5067130;28;20000;-82
2021/12/26 04:29:50;;;;;;;;;;;-3274.20;64.40;;;;;;5082485;28;19920;-82
2021/12/26 04:32:16;;;;;;;;;;;-3274.10;64.60;;;;;;5082149;28;19939;-80
2021/12/26 04:34:41;;;;;;;;;;;-3274.10;64.90;;;;;;5060567;28;19921;-81
2021/12/26 04:37:07;;;;;;;;;;;-3274.10;64.80;;;;;;5079906;28;19912;-81
2021/12/26 04:39:32;;;;;;;;;;;-3274.10;65.10;;;;;;5070284;22;19929;-84
2021/12/26 04:41:57;;;;;;;;;;;-3274.10;64.90;;;;;;5035006;28;19921;-85
2021/12/26 04:44:25;;;;;;;;;;;-3274.10;65.00;;;;;;5018638;28;19913;-84
2021/12/26 04:46:51;;;;;;;;;;;-3274.10;65.10;;;;;;5019519;28;19916;-85
2021/12/26 04:49:16;;;;;;;;;;;-3274.10;64.50;;;;;;5016798;28;20379;-85
2021/12/26 04:51:42;;;;;;;;;;;-3274.20;64.90;;;;;;5019641;28;20011;-84
2021/12/26 04:54:07;;;;;;;;;;;-3274.50;65.20;;;;;;5018396;28;20358;-84
2021/12/26 04:56:33;;;;;;;;;;;-3274.40;64.80;;;;;;5015734;28;19917;-84
2021/12/26 04:58:59;;;;;;;;;;;-3274.20;64.10;;;;;;5018809;28;19917;-83
2021/12/26 05:01:25;;;;;;;;;;;-3274.10;64.90;;;;;;5019602;28;19913;-84
2021/12/26 05:03:50;;;;;;;;;;;-3274.10;65.20;;;;;;5017394;28;19932;-84
2021/12/26 05:06:16;;;;;;;;;;;-3274.20;65.10;;;;;;5038638;28;20372;-84
2021/12/26 05:08:41;;;;;;;;;;;-3274.20;65.30;;;;;;5035329;28;19916;-84
2021/12/26 05:11:07;;;;;;;;;;;-3274.20;65.70;;;;;;5037287;28;19920;-84
2021/12/26 05:13:32;;;;;;;;;;;-3274.20;66.00;;;;;;5027019;28;19945;-82
2021/12/26 05:15:58;;;;;;;;;;;-3274.30;65.50;;;;;;5041803;28;19923;-84
2021/12/26 05:18:23;;;;;;;;;;;-3274.20;65.40;;;;;;5052974;28;19920;-83
2021/12/26 05:20:49;;;;;;;;;;;-3274.20;66.10;;;;;;5033110;28;19970;-84
2021/12/26 05:23:14;;;;;;;;;;;-3274.20;66.30;;;;;;5015826;28;20371;-83
2021/12/26 05:25:40;;;;;;;;;;;-3274.20;66.40;;;;;;5016333;28;19913;-83
2021/12/26 05:28:05;;;;;;;;;;;-3274.20;65.70;;;;;;5017628;28;19921;-83
2021/12/26 05:30:31;;;;;;;;;;;-3274.10;66.10;;;;;;5021026;28;19909;-83
2021/12/26 05:32:56;;;;;;;;;;;-3274.10;65.90;;;;;;5033332;28;20268;-84
2021/12/26 05:35:22;;;;;;;;;;;-3274.10;66.50;;;;;;5018959;28;19999;-83
2021/12/26 05:37:48;;;;;;;;;;;-3274.10;66.80;;;;;;5033731;28;19917;-83
2021/12/26 05:40:14;;;;;;;;;;;-3274.10;66.50;;;;;;5020314;28;20000;-84
2021/12/26 05:42:40;;;;;;;;;;;-3274.20;66.80;;;;;;5016447;28;19948;-83
2021/12/26 05:45:06;;;;;;;;;;;-3274.20;67.10;;;;;;5015441;28;19920;-84
2021/12/26 05:47:32;;;;;;;;;;;-3274.20;67.40;;;;;;5013757;28;19921;-83
2021/12/26 05:49:58;;;;;;;;;;;-3274.20;67.50;;;;;;5019583;28;19913;-85
2021/12/26 05:52:24;;;;;;;;;;;-3274.30;66.40;;;;;;5052832;28;19965;-84
2021/12/26 05:54:49;;;;;;;;;;;-3274.30;66.70;;;;;;5021333;28;19949;-84
2021/12/26 05:57:15;;;;;;;;;;;-3274.20;67.20;;;;;;5035488;28;19967;-84
2021/12/26 05:59:41;;;;;;;;;;;-3274.20;68.20;;;;;;5027323;28;20008;-83
2021/12/26 06:02:07;;;;;;;;;;;-3274.20;67.40;;;;;;5013856;28;19918;-84
2021/12/26 06:04:32;;;;;;;;;;;-3274.20;67.40;;;;;;5038181;28;19991;-84
2021/12/26 06:06:58;;;;;;;;;;;-3274.30;67.20;;;;;;5020960;28;19918;-83
2021/12/26 06:09:24;;;;;;;;;;;-3274.20;67.60;;;;;;5020394;28;19940;-83
2021/12/26 06:11:49;;;;;;;;;;;-3274.20;67.70;;;;;;5017193;28;19921;-83
2021/12/26 06:14:15;;;;;;;;;;;-3274.30;67.90;;;;;;5019601;28;19974;-84
2021/12/26 06:16:40;;;;;;;;;;;-3274.30;67.80;;;;;;5036899;28;19943;-84
2021/12/26 06:19:06;;;;;;;;;;;-3274.30;67.60;;;;;;5023465;28;19921;-83
2021/12/26 06:21:31;;;;;;;;;;;-3274.20;68.00;;;;;;5018954;28;20007;-83
2021/12/26 06:23:57;;;;;;;;;;;-3274.30;67.80;;;;;;5038045;28;20023;-83
2021/12/26 06:26:24;;;;;;;;;;;-3274.30;68.30;;;;;;5040912;28;20012;-84
2021/12/26 06:28:50;;;;;;;;;;;-3274.40;68.10;;;;;;5034010;28;19924;-84
2021/12/26 06:31:16;;;;;;;;;;;-3274.40;67.90;;;;;;5048559;28;19917;-83
2021/12/26 06:33:41;;;;;;;;;;;-3274.50;68.00;;;;;;5047895;28;19913;-83
2021/12/26 06:36:08;;;;;;;;;;;-3274.60;68.00;;;;;;5027111;28;19913;-83
2021/12/26 06:38:34;;;;;;;;;;;-3274.60;67.70;;;;;;5020022;28;19917;-83
2021/12/26 06:41:00;;;;;;;;;;;-3274.50;68.20;;;;;;5019101;28;19917;-84
2021/12/26 06:43:25;;;;;;;;;;;-3274.60;67.50;;;;;;5011121;28;20008;-83
2021/12/26 06:45:52;;;;;;;;;;;-3274.50;68.00;;;;;;5017901;28;19913;-83
2021/12/26 06:48:18;;;;;;;;;;;-3274.50;68.40;;;;;;5011078;28;19996;-84
2021/12/26 06:50:44;;;;;;;;;;;-3274.50;68.60;;;;;;5009323;28;19925;-84
2021/12/26 06:53:11;;;;;;;;;;;-3274.50;68.70;;;;;;5035011;28;19920;-83
2021/12/26 06:55:37;;;;;;;;;;;-3274.50;68.80;;;;;;5017697;28;19920;-83
2021/12/26 06:58:02;;;;;;;;;;;-3274.50;68.60;;;;;;5021256;28;20310;-83
2021/12/26 07:00:28;;;;;;;;;;;-3274.70;69.30;;;;;;5017554;28;20071;-84
2021/12/26 07:02:54;;;;;;;;;;;-3274.60;68.70;;;;;;5010446;28;19918;-83
2021/12/26 07:05:20;;;;;;;;;;;-3274.90;68.60;;;;;;5012570;28;19913;-84
2021/12/26 07:07:46;;;;;;;;;;;-3274.80;68.40;;;;;;5020001;28;19952;-84
2021/12/26 07:10:12;;;;;;;;;;;-3274.80;68.20;;;;;;5035104;28;20720;-83
2021/12/26 07:12:37;;;;;;;;;;;-3274.90;68.10;;;;;;5031984;28;19964;-84
2021/12/26 07:15:03;;;;;;;;;;;-3274.90;68.70;;;;;;5018289;28;19924;-83
2021/12/26 07:17:29;;;;;;;;;;;-3275.20;68.30;;;;;;5033551;28;20360;-83
2021/12/26 07:19:54;;;;;;;;;;;-3275.10;67.70;;;;;;5031992;28;19956;-83
2021/12/26 07:22:20;;;;;;;;;;;-3274.90;68.00;;;;;;5018918;28;19924;-86
2021/12/26 07:24:47;;;;;;;;;;;-3274.80;68.60;;;;;;5018992;28;19921;-84
2021/12/26 07:27:13;;;;;;;;;;;-3274.70;69.40;;;;;;5017312;28;19974;-82
2021/12/26 07:29:38;;;;;;;;;;;-3274.90;69.50;;;;;;5033531;28;20079;-84
2021/12/26 07:32:04;;;;;;;;;;;-3274.80;69.00;;;;;;5018058;28;19961;-83
2021/12/26 07:34:30;;;;;;;;;;;-3275.00;69.10;;;;;;5021801;28;20039;-82
2021/12/26 07:36:55;;;;;;;;;;;-3275.00;69.30;;;;;;5016884;28;20000;-82
2021/12/26 07:39:21;;;;;;;;;;;-3275.20;68.90;;;;;;5025006;28;19924;-82
2021/12/26 07:41:46;;;;;;;;;;;-3275.40;67.60;;;;;;5018303;28;19917;-84
2021/12/26 07:44:12;;;;;;;;;;;-3275.50;67.20;;;;;;5016477;28;19917;-82
2021/12/26 07:46:37;;;;;;;;;;;-3275.50;67.30;;;;;;5038070;28;19909;-84
2021/12/26 07:49:03;;;;;;;;;;;-3275.40;68.00;;;;;;5015742;28;19917;-84
2021/12/26 07:51:29;;;;;;;;;;;-3275.20;68.20;;;;;;5017775;28;19916;-84
2021/12/26 07:53:59;;;;;;;;;;;-3275.00;69.10;;;;;;5019548;28;19917;-84
2021/12/26 07:56:25;;;;;;;;;;;-3275.10;69.50;;;;;;5021211;28;19913;-83
2021/12/26 07:58:50;;;;;;;;;;;-3275.30;69.40;;;;;;5020162;28;19936;-84
2021/12/26 08:01:16;;;;;;;;;;;-3275.10;69.20;;;;;;5022117;28;19913;-84
2021/12/26 08:03:41;;;;;;;;;;;-3275.00;70.40;;;;;;5036634;28;20003;-84
2021/12/26 08:06:08;;;;;;;;;;;-3275.00;70.40;;;;;;5029116;28;19963;-83
2021/12/26 08:08:36;;;;;;;;;;;-3275.00;70.80;;;;;;5018630;28;19913;-85
2021/12/26 08:11:02;;;;;;;;;;;-3275.00;70.70;;;;;;5010157;28;20281;-83
2021/12/26 08:13:30;;;;;;;;;;;-3275.00;71.00;;;;;;5033012;28;20012;-83
2021/12/26 08:15:55;;;;;;;;;;;-3275.30;70.40;;;;;;5017629;28;20382;-83
2021/12/26 08:18:20;;;;;;;;;;;-3275.20;70.20;;;;;;5005787;28;19920;-83
2021/12/26 08:20:46;;;;;;;;;;;-3275.10;71.00;;;;;;5021156;28;21076;-83
2021/12/26 08:23:11;;;;;;;;;;;-3275.20;70.90;;;;;;5018707;28;19919;-83
2021/12/26 08:25:37;;;;;;;;;;;-3275.30;70.50;;;;;;5021036;28;19956;-83
2021/12/26 08:28:03;;;;;;;;;;;-3275.30;70.20;;;;;;5053686;28;19964;-82
2021/12/26 08:30:30;;;;;;;;;;;-3275.50;70.10;;;;;;5038640;28;19933;-83
2021/12/26 08:32:59;;;;;;;;;;;-3275.50;70.10;;;;;;5042146;28;19959;-83
2021/12/26 08:35:24;;;;;;;;;;;-3275.70;69.00;;;;;;5011625;28;19914;-82
2021/12/26 08:37:50;;;;;;;;;;;-3275.70;70.10;;;;;;5011159;28;19913;-83
2021/12/26 08:40:16;;;;;;;;;;;-3275.70;68.90;;;;;;5032702;28;20380;-83
2021/12/26 08:42:41;;;;;;;;;;;-3275.60;69.30;;;;;;5024641;28;19921;-83
2021/12/26 08:45:07;;;;;;;;;;;-3275.50;69.80;;;;;;5018635;28;20008;-83
2021/12/26 08:47:33;;;;;;;;;;;-3275.40;70.50;;;;;;5016279;28;19917;-84
2021/12/26 08:49:58;;;;;;;;;;;-3275.50;69.80;;;;;;5033752;28;19913;-84
2021/12/26 08:52:24;;;;;;;;;;;-3275.40;70.60;;;;;;5014365;28;20364;-84
2021/12/26 08:54:49;;;;;;;;;;;-3275.30;71.30;;;;;;5035519;28;20280;-83
2021/12/26 08:57:18;;;;;;;;;;;-3275.40;71.60;;;;;;5024349;28;19912;-84
2021/12/26 08:59:43;;;;;;;;;;;-3275.40;71.40;;;;;;5018778;28;19928;-83
2021/12/26 09:02:09;;;;;;;;;;;-3275.40;72.10;;;;;;5015812;28;20272;-84
2021/12/26 09:04:35;;;;;;;;;;;-3275.40;71.80;;;;;;5018857;28;19921;-82
2021/12/26 09:07:01;;;;;;;;;;;-3275.40;72.00;;;;;;5037140;28;19948;-83
2021/12/26 09:09:29;;;;;;;;;;;-3275.40;71.90;;;;;;5018559;28;19914;-82
2021/12/26 09:11:55;;;;;;;;;;;-3275.40;72.50;;;;;;5024831;28;19925;-83
2021/12/26 09:14:20;;;;;;;;;;;-3275.50;72.40;;;;;;5022252;28;19931;-83
2021/12/26 09:16:46;;;;;;;;;;;-3275.50;71.90;;;;;;5039725;28;19981;-83
2021/12/26 09:19:11;;;;;;;;;;;-3275.50;72.20;;;;;;5038353;28;19956;-83
2021/12/26 09:21:37;;;;;;;;;;;-3275.50;72.30;;;;;;5036315;28;20943;-84
2021/12/26 09:24:03;;;;;;;;;;;-3275.50;72.50;;;;;;5031075;28;19917;-83
2021/12/26 09:26:29;;;;;;;;;;;-3275.60;71.90;;;;;;5033780;28;19920;-83
2021/12/26 09:28:54;;;;;;;;;;;-3275.60;72.70;;;;;;5034183;28;19913;-83
2021/12/26 09:31:19;;;;;;;;;;;-3275.60;72.50;;;;;;5017411;28;19920;-82
2021/12/26 09:33:45;;;;;;;;;;;-3275.60;72.70;;;;;;5023406;28;19925;-85
2021/12/26 09:36:11;;;;;;;;;;;-3275.50;72.20;;;;;;5019885;28;19975;-84
2021/12/26 09:38:36;;;;;;;;;;;-3275.50;72.70;;;;;;5016713;28;19944;-84
2021/12/26 09:41:02;;;;;;;;;;;-3275.80;72.80;;;;;;5015296;28;19917;-84
2021/12/26 09:43:27;;;;;;;;;;;-3275.80;72.20;;;;;;5050043;28;20372;-85
2021/12/26 09:45:53;;;;;;;;;;;-3275.80;71.90;;;;;;5039685;28;19924;-83
2021/12/26 09:48:20;;;;;;;;;;;-3275.70;72.70;;;;;;5016286;28;19920;-85
2021/12/26 09:50:46;;;;;;;;;;;-3275.80;73.00;;;;;;5015721;28;19913;-85
2021/12/26 09:53:12;;;;;;;;;;;-3275.70;73.20;;;;;;5015151;28;19984;-84
2021/12/26 09:55:37;;;;;;;;;;;-3275.90;73.60;;;;;;5016421;28;20359;-84
2021/12/26 09:58:03;;;;;;;;;;;-3276.00;73.80;;;;;;5014836;28;19917;-85
2021/12/26 10:00:39;;;;;;;;;;;-3276.00;72.40;;;;;;5015260;28;19919;-85
2021/12/26 10:03:08;;;;;;;;;;;-3276.00;72.90;;;;;;5032578;28;19913;-84
2021/12/26 10:05:52;;;;;;;;;;;-3276.10;73.10;;;;;;5015924;28;19917;-85
2021/12/26 10:08:17;;;;;;;;;;;-3276.10;72.90;;;;;;5019996;28;20051;-85
2021/12/26 10:11:04;;;;;;;;;;;-3276.00;73.30;;;;;;5031524;28;21228;-86
2021/12/26 10:13:40;;;;;;;;;;;-3276.10;73.50;;;;;;5011327;28;20276;-85
2021/12/26 10:16:06;;;;;;;;;;;-3276.20;73.20;;;;;;5014254;28;20145;-86
2021/12/26 10:18:31;;;;;;;;;;;-3276.30;73.70;;;;;;5017639;28;20031;-85
2021/12/26 10:20:56;;;;;;;;;;;-3276.40;73.30;;;;;;5021671;28;19976;-85
2021/12/26 10:23:23;;;;;;;;;;;-3276.50;73.00;;;;;;5020573;28;19948;-85
2021/12/26 10:25:49;;;;;;;;;;;-3276.40;73.10;;;;;;5020838;28;19943;-85
2021/12/26 10:28:14;;;;;;;;;;;-3276.30;73.30;;;;;;5012628;28;19918;-85
2021/12/26 10:30:43;;;;;;;;;;;-3276.60;72.90;;;;;;5008011;28;19971;-86
2021/12/26 10:33:08;;;;;;;;;;;-3276.60;72.20;;;;;;5013217;28;19914;-85
2021/12/26 10:35:34;;;;;;;;;;;-3276.60;73.10;;;;;;5031762;28;19923;-86
2021/12/26 10:38:00;;;;;;;;;;;-3276.50;73.60;;;;;;5015030;28;20390;-85
2021/12/26 10:40:27;;;;;;;;;;;-3276.50;73.70;;;;;;5063833;22;19928;-81
2021/12/26 10:42:53;;;;;;;;;;;-3276.50;73.30;;;;;;5072889;28;19913;-81
2021/12/26 10:45:21;;;;;;;;;;;-3276.70;73.10;;;;;;5085377;28;19927;-82
2021/12/26 10:47:54;;;;;;;;;;;-3276.70;72.60;;;;;;5092146;28;19967;-82
2021/12/26 10:50:20;;;;;;;;;;;0.00;72.40;;;;;;5093159;28;20303;-82
2021/12/26 10:52:58;;;;;;;;;;;-3276.70;73.10;;;;;;5095193;28;19946;-80
2021/12/26 10:55:32;;;;;;;;;;;-3276.60;73.20;;;;;;5080681;28;19913;-80
2021/12/26 10:58:00;;;;;;;;;;;-3276.70;73.80;;;;;;5095098;28;19917;-82
2021/12/26 11:00:31;;;;;;;;;;;-3276.70;73.20;;;;;;5097286;28;19913;-82
2021/12/26 11:02:59;;;;;;;;;;;-3276.50;73.80;;;;;;5094740;28;19944;-81
2021/12/26 11:05:35;;;;;;;;;;;-3276.50;74.40;;;;;;5092068;28;20003;-81
2021/12/26 11:08:03;;;;;;;;;;;-3276.50;74.60;;;;;;5099574;28;19923;-81
2021/12/26 11:10:33;;;;;;;;;;;-3276.50;74.40;;;;;;5095855;28;19916;-80
2021/12/26 11:13:01;;;;;;;;;;;-3276.50;74.50;;;;;;5095234;28;19915;-81
2021/12/26 11:15:30;;;;;;;;;;;-3276.60;74.90;;;;;;5097879;28;19912;-80
2021/12/26 11:18:01;;;;;;;;;;;0.00;74.60;;;;;;5097486;28;19943;-82
2021/12/26 11:20:34;;;;;;;;;;;0.00;74.20;;;;;;5096813;28;19916;-82
2021/12/26 11:23:09;;;;;;;;;;;0.00;74.40;;;;;;5091137;28;19919;-81
2021/12/26 11:25:35;;;;;;;;;;;0.10;74.50;;;;;;5098326;28;19916;-82
2021/12/26 11:28:01;;;;;;;;;;;0.10;74.00;;;;;;5101430;28;19952;-81
2021/12/26 11:30:26;;;;;;;;;;;0.10;74.20;;;;;;5093974;28;19924;-82
2021/12/26 11:32:52;;;;;;;;;;;0.10;74.60;;;;;;5093117;28;20268;-81
2021/12/26 11:35:18;;;;;;;;;;;0.10;74.90;;;;;;5100843;28;20356;-82
2021/12/26 11:37:44;;;;;;;;;;;0.20;74.50;;;;;;5100460;28;20299;-80
2021/12/26 11:40:10;;;;;;;;;;;0.20;74.50;;;;;;5099593;28;19920;-81
2021/12/26 11:42:42;;;;;;;;;;;0.30;74.20;;;;;;5103037;28;19975;-81
2021/12/26 11:45:27;;;;;;;;;;;0.30;73.80;;;;;;5101335;28;19919;-83
2021/12/26 11:48:11;;;;;;;;;;;0.30;74.50;;;;;;5092632;28;19912;-82
2021/12/26 11:50:43;;;;;;;;;;;0.20;75.10;;;;;;5101929;28;19916;-82
2021/12/26 11:53:11;;;;;;;;;;;0.30;74.70;;;;;;5103243;28;19920;-81
2021/12/26 11:55:59;;;;;;;;;;;0.30;75.10;;;;;;5091327;28;19915;-81
2021/12/26 11:58:24;;;;;;;;;;;0.30;75.30;;;;;;5096827;28;19923;-83
2021/12/26 12:00:51;;;;;;;;;;;0.30;74.60;;;;;;5083648;28;19912;-83
2021/12/26 12:03:19;;;;;;;;;;;0.30;74.80;;;;;;5094820;28;19913;-83
2021/12/26 12:05:44;;;;;;;;;;;0.30;74.70;;;;;;5099651;28;20260;-83
2021/12/26 12:08:14;;;;;;;;;;;0.40;75.20;;;;;;5102439;28;19987;-83
2021/12/26 12:10:43;;;;;;;;;;;0.40;75.00;;;;;;5100894;28;19923;-84
2021/12/26 12:13:14;;;;;;;;;;;0.50;75.10;;;;;;5097909;28;19916;-84
2021/12/26 12:15:46;;;;;;;;;;;0.60;75.50;;;;;;5098815;28;19920;-83
2021/12/26 12:18:13;;;;;;;;;;;0.60;75.30;;;;;;5094369;28;19912;-83
2021/12/26 12:20:38;;;;;;;;;;;0.60;75.30;;;;;;5091624;28;20283;-84
2021/12/26 12:23:04;;;;;;;;;;;0.60;75.50;;;;;;5088019;28;19931;-85
2021/12/26 12:25:49;;;;;;;;;;;0.60;75.50;;;;;;5105680;28;19916;-84
2021/12/26 12:28:17;;;;;;;;;;;0.70;75.80;;;;;;5103126;28;19936;-82
2021/12/26 12:30:50;;;;;;;;;;;0.80;75.50;;;;;;5100733;28;19998;-84
2021/12/26 12:33:16;;;;;;;;;;;0.80;75.60;;;;;;5099303;28;19916;-82
2021/12/26 12:36:04;;;;;;;;;;;0.80;75.70;;;;;;5102630;28;19916;-84
2021/12/26 12:38:47;;;;;;;;;;;0.80;76.20;;;;;;5076721;28;20004;-84
2021/12/26 12:41:45;;;;;;;;;;;0.80;76.30;;;;;;5098883;28;19916;-85
2021/12/26 12:44:23;;;;;;;;;;;0.80;76.40;;;;;;5067037;28;19919;-84
2021/12/26 12:46:57;;;;;;;;;;;0.80;76.40;;;;;;5101864;28;20034;-84
2021/12/26 12:49:40;;;;;;;;;;;0.90;76.40;;;;;;5092988;28;19997;-84
2021/12/26 12:52:06;;;;;;;;;;;0.90;76.10;;;;;;5086022;28;19975;-85
2021/12/26 12:54:32;;;;;;;;;;;0.90;76.30;;;;;;5100961;28;19913;-84
2021/12/26 12:56:59;;;;;;;;;;;0.90;76.60;;;;;;5095195;28;19912;-82
2021/12/26 12:59:26;;;;;;;;;;;1.00;76.80;;;;;;5105035;28;20292;-83
2021/12/26 13:01:53;;;;;;;;;;;0.90;76.90;;;;;;5101405;28;19912;-84
2021/12/26 13:04:21;;;;;;;;;;;0.90;78.20;;;;;;5101246;28;19928;-82
2021/12/26 13:06:49;;;;;;;;;;;0.80;78.50;;;;;;5099317;28;19913;-80
2021/12/26 13:09:15;;;;;;;;;;;0.80;79.50;;;;;;5094891;28;20334;-87
2021/12/26 13:11:41;;;;;;;;;;;0.80;79.60;;;;;;5096935;28;19920;-87
2021/12/26 13:14:06;;;;;;;;;;;0.90;79.90;;;;;;5092359;28;19916;-84
2021/12/26 13:16:32;;;;;;;;;;;1.10;81.30;;;;;;5092018;28;19916;-85
2021/12/26 13:19:04;;;;;;;;;;;1.30;80.60;;;;;;5096618;28;19928;-84
2021/12/26 13:21:30;;;;;;;;;;;1.10;79.60;;;;;;5087630;28;19919;-78
2021/12/26 13:23:55;;;;;;;;;;;1.10;80.20;;;;;;5091276;28;20284;-79
2021/12/26 13:26:21;;;;;;;;;;;1.10;80.70;;;;;;5094019;28;19959;-80
2021/12/26 13:28:47;;;;;;;;;;;1.10;80.70;;;;;;5095997;28;19923;-82
2021/12/26 13:31:14;;;;;;;;;;;1.10;81.10;;;;;;5091760;28;19918;-81
2021/12/26 13:33:40;;;;;;;;;;;1.10;80.80;;;;;;5102302;28;19972;-80
2021/12/26 13:36:07;;;;;;;;;;;1.10;81.30;;;;;;5104964;28;19995;-81
2021/12/26 13:38:33;;;;;;;;;;;1.00;81.70;;;;;;5100664;28;19931;-77
2021/12/26 13:40:58;;;;;;;;;;;1.00;82.10;;;;;;5100485;28;19915;-84
2021/12/26 13:43:32;;;;;;;;;;;0.90;82.80;;;;;;5093758;28;20623;-86
2021/12/26 13:45:58;;;;;;;;;;;1.00;83.00;;;;;;5085216;28;19912;-87
2021/12/26 13:48:44;;;;;;;;;;;1.00;83.00;;;;;;5086606;28;19912;-88